createdAt,value
2022-12-19T00:02:01.662Z,102455.22
2022-12-19T00:04:29.246Z,102458.25
2022-12-19T00:07:01.218Z,102457.59
2022-12-19T00:09:29.223Z,102456.06
2022-12-19T00:11:57.131Z,102475.56
2022-12-19T00:14:26.797Z,102473.16
2022-12-19T00:16:56.603Z,102471.63
2022-12-19T00:19:24.500Z,102470.97
2022-12-19T00:21:54.557Z,102469.34
2022-12-19T00:24:22.074Z,102470.22
2022-12-19T00:26:50.242Z,102466.72
2022-12-19T00:29:17.795Z,102464.16
2022-12-19T00:31:45.734Z,102465.94
2022-12-19T00:34:13.381Z,102468.78
2022-12-19T00:36:41.034Z,102463.47
2022-12-19T00:39:10.358Z,102464.53
2022-12-19T00:41:41.550Z,102468.03
2022-12-19T00:44:15.236Z,102463.66
2022-12-19T00:46:43.265Z,102464.97
2022-12-19T00:49:14.097Z,102468.47
2022-12-19T00:51:41.769Z,102467.53
2022-12-19T00:54:10.882Z,102466.59
2022-12-19T00:56:39.489Z,102470.09
2022-12-19T00:59:07.152Z,102466.12
2022-12-19T01:01:48.527Z,102460.19
2022-12-19T01:04:28.127Z,102459.56
2022-12-19T01:07:01.927Z,102454.94
2022-12-19T01:09:31.415Z,102462.78
2022-12-19T01:12:18.243Z,102450.97
2022-12-19T01:14:45.870Z,102449.72
2022-12-19T01:17:14.035Z,102459.59
2022-12-19T01:19:44.417Z,102455.62
2022-12-19T01:22:14.063Z,102450.87
2022-12-19T01:24:42.364Z,102446.25
2022-12-19T01:27:10.376Z,102444.84
2022-12-19T01:29:52.113Z,102435.00
2022-12-19T01:32:20.666Z,102420.88
2022-12-19T01:34:48.641Z,102429.00
2022-12-19T01:37:16.244Z,102419.63
2022-12-19T01:39:46.025Z,102412.03
2022-12-19T01:42:23.551Z,102418.62
2022-12-19T01:45:13.811Z,102408.78
2022-12-19T01:48:03.099Z,102410.47
2022-12-19T01:50:33.649Z,102398.91
2022-12-19T01:53:02.237Z,102404.13
2022-12-19T01:55:29.917Z,102405.44
2022-12-19T01:57:58.118Z,102404.84
2022-12-19T02:00:25.663Z,102405.28
2022-12-19T02:03:04.928Z,102404.03
2022-12-19T02:05:35.212Z,102400.25
2022-12-19T02:08:02.964Z,102400.97
2022-12-19T02:10:30.531Z,102412.69
2022-12-19T02:12:58.331Z,102411.72
2022-12-19T02:15:30.327Z,102412.38
2022-12-19T02:18:08.466Z,102407.91
2022-12-19T02:21:13.996Z,102409.81
2022-12-19T02:24:19.088Z,102398.12
2022-12-19T02:27:25.943Z,102413.28
2022-12-19T02:30:07.248Z,102413.81
2022-12-19T02:32:41.342Z,102415.28
2022-12-19T02:35:16.383Z,102419.66
2022-12-19T02:37:53.950Z,102419.66
2022-12-19T02:40:37.300Z,102424.97
2022-12-19T02:43:07.637Z,102420.28
2022-12-19T02:45:40.539Z,102420.09
2022-12-19T02:48:10.065Z,102428.28
2022-12-19T02:50:43.232Z,102424.47
2022-12-19T02:53:16.759Z,102427.75
2022-12-19T02:56:07.041Z,102425.84
2022-12-19T02:59:21.759Z,102429.34
2022-12-19T03:01:59.353Z,102426.69
2022-12-19T03:04:59.666Z,102417.78
2022-12-19T03:07:27.467Z,102422.13
2022-12-19T03:10:16.637Z,102423.72
2022-12-19T03:12:54.746Z,102415.75
2022-12-19T03:15:24.669Z,102411.50
2022-12-19T03:17:52.481Z,102405.97
2022-12-19T03:20:41.284Z,102404.28
2022-12-19T03:23:10.780Z,102409.28
2022-12-19T03:25:39.702Z,102394.84
2022-12-19T03:28:15.026Z,102386.97
2022-12-19T03:30:45.527Z,102391.97
2022-12-19T03:33:15.118Z,102391.75
2022-12-19T03:35:47.533Z,102383.66
2022-12-19T03:38:18.738Z,102380.16
2022-12-19T03:40:47.602Z,102386.09
2022-12-19T03:43:17.441Z,102386.63
2022-12-19T03:45:54.743Z,102384.41
2022-12-19T03:48:45.633Z,102387.91
2022-12-19T03:51:27.227Z,102382.37
2022-12-19T03:54:03.377Z,102386.72
2022-12-19T03:56:47.558Z,102391.19
2022-12-19T03:59:31.366Z,102394.50
2022-12-19T04:02:06.995Z,102396.94
2022-12-19T04:04:43.550Z,102394.91
2022-12-19T04:07:13.089Z,102387.78
2022-12-19T04:09:45.481Z,102376.16
2022-12-19T04:12:20.466Z,102385.00
2022-12-19T04:14:52.003Z,102391.28
2022-12-19T04:17:28.443Z,102392.87
2022-12-19T04:20:02.088Z,102391.91
2022-12-19T04:22:53.955Z,102396.37
2022-12-19T04:25:30.279Z,102406.69
2022-12-19T04:28:12.400Z,102398.41
2022-12-19T04:30:43.481Z,102405.19
2022-12-19T04:33:11.078Z,102395.50
2022-12-19T04:35:39.143Z,102402.53
2022-12-19T04:38:07.346Z,102395.50
2022-12-19T04:40:41.854Z,102394.34
2022-12-19T04:43:10.805Z,102403.78
2022-12-19T04:45:38.774Z,102396.66
2022-12-19T04:48:08.970Z,102400.91
2022-12-19T04:50:36.956Z,102391.34
2022-12-19T04:53:05.707Z,102387.94
2022-12-19T04:55:33.788Z,102395.47
2022-12-19T04:58:03.054Z,102390.88
2022-12-19T05:00:34.039Z,102387.59
2022-12-19T05:03:01.872Z,102394.06
2022-12-19T05:05:30.729Z,102391.50
2022-12-19T05:08:03.198Z,102387.03
2022-12-19T05:10:30.868Z,102390.25
2022-12-19T05:12:58.419Z,102395.56
2022-12-19T05:15:26.011Z,102401.72
2022-12-19T05:17:54.938Z,102399.81
2022-12-19T05:20:25.226Z,102405.97
2022-12-19T05:22:52.779Z,102403.22
2022-12-19T05:25:20.390Z,102405.75
2022-12-19T05:27:48.062Z,102396.06
2022-12-19T05:30:15.640Z,102386.16
2022-12-19T05:32:45.295Z,102402.63
2022-12-19T05:35:12.970Z,102398.16
2022-12-19T05:37:41.851Z,102385.59
2022-12-19T05:40:12.418Z,102382.94
2022-12-19T05:42:42.571Z,102376.03
2022-12-19T05:45:14.309Z,102383.78
2022-12-19T05:47:43.869Z,102398.78
2022-12-19T05:50:13.860Z,102394.19
2022-12-19T05:52:43.960Z,102382.59
2022-12-19T05:55:12.613Z,102383.31
2022-12-19T05:57:40.272Z,102382.47
2022-12-19T06:00:13.779Z,102383.31
2022-12-19T06:02:41.537Z,102394.72
2022-12-19T06:05:09.827Z,102386.75
2022-12-19T06:07:37.801Z,102383.13
2022-12-19T06:10:08.961Z,102385.91
2022-12-19T06:12:41.231Z,102395.13
2022-12-19T06:15:09.711Z,102396.94
2022-12-19T06:17:42.183Z,102403.97
2022-12-19T06:20:13.215Z,102405.87
2022-12-19T06:22:40.777Z,102409.91
2022-12-19T06:25:09.844Z,102402.03
2022-12-19T06:27:37.825Z,102402.66
2022-12-19T06:30:07.047Z,102408.09
2022-12-19T06:32:41.245Z,102406.03
2022-12-19T06:35:09.815Z,102405.19
2022-12-19T06:37:39.498Z,102412.22
2022-12-19T06:40:08.031Z,102406.37
2022-12-19T06:42:34.631Z,102414.38
2022-12-19T06:45:02.178Z,102425.75
2022-12-19T06:47:29.766Z,102417.78
2022-12-19T06:49:57.497Z,102420.66
2022-12-19T06:52:29.538Z,102410.88
2022-12-19T06:54:57.221Z,102421.50
2022-12-19T06:57:27.406Z,102414.50
2022-12-19T06:59:55.114Z,102406.50
2022-12-19T07:02:28.616Z,102400.34
2022-12-19T07:05:03.825Z,102408.19
2022-12-19T07:07:31.960Z,102413.03
2022-12-19T07:10:00.293Z,102419.94
2022-12-19T07:12:32.876Z,102426.63
2022-12-19T07:15:03.618Z,102429.50
2022-12-19T07:17:31.348Z,102429.50
2022-12-19T07:20:00.297Z,102427.56
2022-12-19T07:22:35.694Z,102423.09
2022-12-19T07:25:06.127Z,102425.41
2022-12-19T07:27:36.139Z,102418.75
2022-12-19T07:30:06.167Z,102421.78
2022-12-19T07:32:40.556Z,102420.22
2022-12-19T07:35:08.810Z,102426.72
2022-12-19T07:37:36.496Z,102424.06
2022-12-19T07:40:07.708Z,102423.44
2022-12-19T07:42:35.823Z,102429.84
2022-12-19T07:45:04.343Z,102424.41
2022-12-19T07:47:32.434Z,102420.37
2022-12-19T07:50:01.800Z,102428.53
2022-12-19T07:52:32.601Z,102414.16
2022-12-19T07:55:01.485Z,102423.94
2022-12-19T07:57:29.156Z,102432.16
2022-12-19T07:59:57.342Z,102414.75
2022-12-19T08:02:25.625Z,102447.91
2022-12-19T08:04:53.985Z,102442.25
2022-12-19T08:07:21.751Z,102431.66
2022-12-19T08:09:51.833Z,102418.84
2022-12-19T08:12:20.791Z,102434.97
2022-12-19T08:14:52.859Z,102441.66
2022-12-19T08:17:24.575Z,102419.97
2022-12-19T08:19:52.195Z,102447.78
2022-12-19T08:22:20.302Z,102446.59
2022-12-19T08:24:48.020Z,102438.81
2022-12-19T08:27:19.905Z,102455.44
2022-12-19T08:29:47.705Z,102450.81
2022-12-19T08:32:20.731Z,102436.16
2022-12-19T08:34:49.747Z,102445.00
2022-12-19T08:37:20.573Z,102443.69
2022-12-19T08:39:48.211Z,102443.69
2022-12-19T08:42:15.869Z,102433.53
2022-12-19T08:44:46.185Z,102432.25
2022-12-19T08:47:14.263Z,102420.78
2022-12-19T08:49:43.608Z,102424.72
2022-12-19T08:52:11.197Z,102428.47
2022-12-19T08:54:38.825Z,102428.03
2022-12-19T08:57:06.426Z,102429.25
2022-12-19T08:59:34.038Z,102435.75
2022-12-19T09:02:06.174Z,102425.25
2022-12-19T09:06:01.831Z,102413.56
2022-12-19T09:07:23.247Z,102430.13
2022-12-19T09:09:50.849Z,102425.34
2022-12-19T09:12:18.599Z,102421.88
2022-12-19T09:14:50.416Z,102408.25
2022-12-19T09:17:21.073Z,102412.59
2022-12-19T09:19:49.255Z,102416.69
2022-12-19T09:22:17.852Z,102408.16
2022-12-19T09:24:45.613Z,102418.03
2022-12-19T09:27:15.695Z,102432.41
2022-12-19T09:29:46.071Z,102431.19
2022-12-19T09:32:15.249Z,102444.41
2022-12-19T09:34:43.095Z,102439.87
2022-12-19T09:37:16.976Z,102425.72
2022-12-19T09:39:46.412Z,102421.94
2022-12-19T09:42:40.562Z,102403.16
2022-12-19T09:45:18.019Z,102405.28
2022-12-19T09:47:59.292Z,102409.06
2022-12-19T09:51:10.313Z,102369.13
2022-12-19T09:54:01.972Z,102398.25
2022-12-19T09:56:45.995Z,102388.75
2022-12-19T09:59:41.372Z,102385.31
2022-12-19T10:02:26.331Z,102389.97
2022-12-19T10:05:33.381Z,102383.59
2022-12-19T10:08:10.574Z,102384.22
2022-12-19T10:12:42.763Z,102379.44
2022-12-19T10:14:13.544Z,102371.47
2022-12-19T10:17:23.658Z,102364.34
2022-12-19T10:20:14.833Z,102372.97
2022-12-19T10:23:04.310Z,102375.25
2022-12-19T10:25:38.384Z,102370.38
2022-12-19T10:28:18.845Z,102370.38
2022-12-19T10:31:09.855Z,102375.31
2022-12-19T10:34:00.975Z,102377.84
2022-12-19T10:37:13.032Z,102366.13
2022-12-19T10:39:44.223Z,102361.09
2022-12-19T10:42:28.437Z,102352.25
2022-12-19T10:45:00.577Z,102348.37
2022-12-19T10:47:28.454Z,102342.63
2022-12-19T10:49:56.071Z,102339.69
2022-12-19T10:53:07.296Z,102345.91
2022-12-19T10:55:48.125Z,102344.87
2022-12-19T10:58:23.241Z,102345.00
2022-12-19T11:01:23.787Z,102337.69
2022-12-19T11:03:56.263Z,102344.75
2022-12-19T11:06:35.961Z,102333.59
2022-12-19T11:10:45.199Z,102334.19
2022-12-19T11:13:29.494Z,102324.66
2022-12-19T11:17:02.402Z,102296.66
2022-12-19T11:27:17.270Z,102327.91
2022-12-19T11:29:32.310Z,102328.25
2022-12-19T11:29:32.819Z,102322.31
2022-12-19T11:29:46.488Z,102330.75
2022-12-19T11:32:45.038Z,102318.94
2022-12-19T11:35:16.293Z,102301.34
2022-12-19T11:37:56.660Z,102303.75
2022-12-19T11:40:51.952Z,102309.56
2022-12-19T11:43:44.567Z,102303.28
2022-12-19T11:46:22.285Z,102299.88
2022-12-19T11:49:31.455Z,102297.03
2022-12-19T11:52:37.063Z,102282.75
2022-12-19T11:55:08.992Z,102276.38
2022-12-19T11:57:38.496Z,102274.00
2022-12-19T12:00:06.767Z,102273.97
2022-12-19T12:03:06.181Z,102269.16
2022-12-19T12:05:50.426Z,102246.03
2022-12-19T12:09:26.196Z,102268.03
2022-12-19T12:18:07.471Z,102264.37
2022-12-19T12:23:52.926Z,102263.31
2022-12-19T12:31:15.240Z,102266.34
2022-12-19T12:31:21.635Z,102266.41
2022-12-19T12:31:22.910Z,102260.91
2022-12-19T12:32:03.363Z,102248.88
2022-12-19T12:35:08.004Z,102256.63
2022-12-19T12:35:38.187Z,102241.78
2022-12-19T12:39:59.192Z,102248.62
2022-12-19T12:42:43.372Z,102253.47
2022-12-19T12:45:37.752Z,102252.72
2022-12-19T12:48:20.910Z,102247.25
2022-12-19T12:50:55.001Z,102247.81
2022-12-19T12:53:29.042Z,102248.25
2022-12-19T12:55:59.760Z,102249.63
2022-12-19T12:58:43.629Z,102247.63
2022-12-19T13:01:18.316Z,102241.03
2022-12-19T13:04:03.947Z,102236.94
2022-12-19T13:06:54.567Z,102228.03
2022-12-19T13:09:27.070Z,102226.06
2022-12-19T13:12:16.448Z,102229.66
2022-12-19T13:14:47.900Z,102233.03
2022-12-19T13:17:33.672Z,102238.66
2022-12-19T13:20:04.365Z,102231.50
2022-12-19T13:22:32.525Z,102227.44
2022-12-19T13:25:03.294Z,102226.69
2022-12-19T13:27:34.971Z,102227.94
2022-12-19T13:30:05.772Z,102223.34
2022-12-19T13:32:54.675Z,102219.69
2022-12-19T13:36:31.800Z,102216.16
2022-12-19T13:39:55.756Z,102211.28
2022-12-19T13:41:25.746Z,102211.94
2022-12-19T13:43:59.397Z,102205.56
2022-12-19T13:46:45.685Z,102198.25
2022-12-19T13:49:31.892Z,102184.72
2022-12-19T13:52:05.072Z,102192.28
2022-12-19T13:54:45.855Z,102207.97
2022-12-19T13:57:32.997Z,102210.50
2022-12-19T14:00:12.314Z,102216.75
2022-12-19T14:02:50.119Z,102205.22
2022-12-19T14:05:49.405Z,102207.69
2022-12-19T14:08:25.528Z,102201.62
2022-12-19T14:11:37.566Z,102199.44
2022-12-19T14:14:31.646Z,102207.56
2022-12-19T14:17:13.267Z,102205.53
2022-12-19T14:19:46.076Z,102201.66
2022-12-19T14:22:25.550Z,102205.53
2022-12-19T14:25:27.100Z,102201.31
2022-12-19T14:28:24.034Z,102191.84
2022-12-19T14:30:48.253Z,102191.97
2022-12-19T14:33:45.143Z,102189.66
2022-12-19T14:36:16.292Z,102182.78
2022-12-19T14:39:26.576Z,102184.12
2022-12-19T14:42:02.602Z,102171.16
2022-12-19T14:54:10.033Z,102203.72
2022-12-19T14:54:10.726Z,102201.56
2022-12-19T14:54:15.728Z,102200.19
2022-12-19T14:54:50.558Z,102202.63
2022-12-19T14:59:36.705Z,102204.81
2022-12-19T15:02:07.145Z,102198.88
2022-12-19T15:04:51.085Z,102200.94
2022-12-19T15:07:24.609Z,102201.50
2022-12-19T15:11:02.547Z,102204.31
2022-12-19T15:14:48.362Z,102203.34
2022-12-19T15:16:04.674Z,102212.78
2022-12-19T15:18:42.746Z,102203.56
2022-12-19T15:21:15.627Z,102219.78
2022-12-19T15:23:46.263Z,102215.00
2022-12-19T15:26:21.430Z,102210.66
2022-12-19T15:28:55.685Z,102207.28
2022-12-19T15:31:33.102Z,102204.13
2022-12-19T15:36:51.148Z,102215.84
2022-12-19T15:39:19.614Z,102218.75
2022-12-19T15:41:49.716Z,102211.75
2022-12-19T15:44:21.395Z,102220.22
2022-12-19T15:46:50.750Z,102228.31
2022-12-19T15:49:21.218Z,102220.56
2022-12-19T15:51:49.685Z,102212.84
2022-12-19T15:57:05.442Z,102208.59
2022-12-19T15:59:39.844Z,102213.19
2022-12-19T16:02:37.518Z,102205.19
2022-12-19T16:05:15.977Z,102200.59
2022-12-19T16:07:44.044Z,102199.41
2022-12-19T16:10:12.492Z,102199.91
2022-12-19T16:12:45.683Z,102202.31
2022-12-19T16:15:26.721Z,102193.03
2022-12-19T16:17:55.772Z,102201.62
2022-12-19T16:20:34.532Z,102194.25
2022-12-19T16:23:04.804Z,102198.84
2022-12-19T16:25:40.689Z,102194.38
2022-12-19T16:28:22.052Z,102190.75
2022-12-19T16:30:50.477Z,102198.25
2022-12-19T16:33:27.851Z,102184.81
2022-12-19T16:36:06.933Z,102194.12
2022-12-19T16:38:35.363Z,102174.66
2022-12-19T16:41:05.282Z,102173.94
2022-12-19T16:43:41.206Z,102172.37
2022-12-19T16:46:14.362Z,102177.81
2022-12-19T16:48:44.694Z,102175.75
2022-12-19T16:51:24.691Z,102177.34
2022-12-19T16:53:56.389Z,102173.59
2022-12-19T16:56:56.860Z,102167.28
2022-12-19T16:59:42.260Z,102152.50
2022-12-19T17:02:41.447Z,102152.63
2022-12-19T17:05:16.316Z,102171.41
2022-12-19T17:07:45.540Z,102171.28
2022-12-19T17:10:15.056Z,102173.59
2022-12-19T17:12:44.062Z,102181.69
2022-12-19T17:15:24.165Z,102185.09
2022-12-19T17:17:53.663Z,102177.34
2022-12-19T17:20:25.215Z,102178.19
2022-12-19T17:22:53.530Z,102174.69
2022-12-19T17:25:25.519Z,102173.81
2022-12-19T17:27:54.844Z,102181.56
2022-12-19T17:30:23.295Z,102178.19
2022-12-19T17:32:53.917Z,102178.91
2022-12-19T17:35:28.009Z,102182.53
2022-12-19T17:37:58.070Z,102183.50
2022-12-19T17:40:38.986Z,102182.03
2022-12-19T17:43:07.610Z,102187.38
2022-12-19T17:45:37.767Z,102194.41
2022-12-19T17:48:14.532Z,102181.69
2022-12-19T17:50:45.000Z,102191.72
2022-12-19T17:53:15.712Z,102191.97
2022-12-19T17:55:43.825Z,102186.66
2022-12-19T17:58:11.647Z,102190.16
2022-12-19T18:00:40.750Z,102186.53
2022-12-19T18:03:28.253Z,102185.56
2022-12-19T18:05:57.503Z,102187.97
2022-12-19T18:08:33.147Z,102188.09
2022-12-19T18:11:03.794Z,102188.94
2022-12-19T18:13:32.735Z,102190.38
2022-12-19T18:16:12.717Z,102187.47
2022-12-19T18:18:41.855Z,102181.19
2022-12-19T18:21:15.535Z,102181.44
2022-12-19T18:23:43.659Z,102176.94
2022-12-19T18:26:12.604Z,102185.78
2022-12-19T18:28:41.706Z,102188.19
2022-12-19T18:31:39.948Z,102185.41
2022-12-19T18:34:20.204Z,102182.16
2022-12-19T18:36:52.742Z,102186.03
2022-12-19T18:39:23.300Z,102172.97
2022-12-19T18:41:51.973Z,102181.69
2022-12-19T18:44:19.978Z,102164.22
2022-12-19T18:46:53.149Z,102156.47
2022-12-19T18:49:23.930Z,102160.09
2022-12-19T18:51:51.503Z,102147.03
2022-12-19T18:54:22.509Z,102140.12
2022-12-19T18:56:50.152Z,102138.06
2022-12-19T18:59:17.776Z,102128.75
2022-12-19T19:01:48.209Z,102128.28
2022-12-19T19:04:18.108Z,102128.28
2022-12-19T19:06:51.736Z,102139.16
2022-12-19T19:09:22.847Z,102130.19
2022-12-19T19:11:50.467Z,102119.53
2022-12-19T19:14:20.219Z,102113.75
2022-12-19T19:16:47.934Z,102121.47
2022-12-19T19:19:19.467Z,102118.81
2022-12-19T19:21:47.418Z,102129.38
2022-12-19T19:24:19.131Z,102124.78
2022-12-19T19:26:46.763Z,102131.91
2022-12-19T19:29:19.741Z,102123.81
2022-12-19T19:31:51.261Z,102131.41
2022-12-19T19:34:29.821Z,102124.16
2022-12-19T19:37:03.738Z,102119.06
2022-12-19T19:39:35.670Z,102118.94
2022-12-19T19:42:04.019Z,102120.50
2022-12-19T19:44:32.440Z,102115.44
2022-12-19T19:47:02.366Z,102115.69
2022-12-19T19:49:29.947Z,102116.06
2022-12-19T19:52:02.529Z,102108.91
2022-12-19T19:54:31.523Z,102095.84
2022-12-19T19:56:59.256Z,102106.97
2022-12-19T19:59:32.253Z,102106.97
2022-12-19T20:02:00.009Z,102095.13
2022-12-19T20:04:27.947Z,102108.06
2022-12-19T20:07:01.649Z,102098.37
2022-12-19T20:09:29.264Z,102109.16
2022-12-19T20:11:59.552Z,102106.12
2022-12-19T20:14:29.576Z,102116.41
2022-12-19T20:16:57.179Z,102121.00
2022-12-19T20:19:24.824Z,102119.31
2022-12-19T20:21:54.861Z,102119.06
2022-12-19T20:24:22.472Z,102122.34
2022-12-19T20:26:50.035Z,102124.16
2022-12-19T20:29:17.570Z,102122.81
2022-12-19T20:31:46.646Z,102121.94
2022-12-19T20:34:14.271Z,102114.69
2022-12-19T20:36:41.864Z,102111.28
2022-12-19T20:39:10.722Z,102119.16
2022-12-19T20:41:38.304Z,102110.31
2022-12-19T20:44:06.818Z,102105.97
2022-12-19T20:46:36.719Z,102093.88
2022-12-19T20:49:04.334Z,102091.66
2022-12-19T20:51:34.246Z,102087.91
2022-12-19T20:54:06.065Z,102097.00
2022-12-19T20:56:38.262Z,102094.91
2022-12-19T20:59:05.955Z,102105.72
2022-12-19T21:01:33.602Z,102090.69
2022-12-19T21:04:01.411Z,102094.06
2022-12-19T21:06:29.752Z,102093.84
2022-12-19T21:08:58.488Z,102090.56
2022-12-19T21:11:27.213Z,102093.34
2022-12-19T21:13:55.433Z,102092.38
2022-12-19T21:16:23.804Z,102086.22
2022-12-19T21:18:52.312Z,102088.63
2022-12-19T21:21:25.455Z,102089.38
2022-12-19T21:23:56.086Z,102089.38
2022-12-19T21:26:25.998Z,102089.00
2022-12-19T21:28:57.822Z,102097.84
2022-12-19T21:31:29.202Z,102095.75
2022-12-19T21:34:01.642Z,102098.88
2022-12-19T21:36:30.985Z,102091.88
2022-12-19T21:39:00.484Z,102085.94
2022-12-19T21:41:28.059Z,102083.66
2022-12-19T21:43:56.898Z,102076.50
2022-12-19T21:46:30.047Z,102077.47
2022-12-19T21:49:01.906Z,102071.31
2022-12-19T21:51:31.503Z,102075.41
2022-12-19T21:54:01.462Z,102076.84
2022-12-19T21:56:31.539Z,102070.53
2022-12-19T21:59:02.449Z,102068.72
2022-12-19T22:01:31.798Z,102074.56
2022-12-19T22:04:09.011Z,102083.16
2022-12-19T22:06:38.476Z,102080.03
2022-12-19T22:09:10.031Z,102078.72
2022-12-19T22:11:37.935Z,102083.91
2022-12-19T22:14:06.029Z,102083.91
2022-12-19T22:16:37.323Z,102083.91
2022-12-19T22:19:13.521Z,102078.34
2022-12-19T22:21:41.179Z,102069.63
2022-12-19T22:24:10.987Z,102072.81
2022-12-19T22:26:39.127Z,102064.94
2022-12-19T22:29:15.687Z,102059.97
2022-12-19T22:31:43.742Z,102054.91
2022-12-19T22:34:15.312Z,102056.97
2022-12-19T22:36:44.312Z,102043.16
2022-12-19T22:39:14.475Z,102036.28
2022-12-19T22:41:43.484Z,102044.06
2022-12-19T22:44:25.887Z,102035.72
2022-12-19T22:46:53.752Z,102034.25
2022-12-19T22:49:21.565Z,102021.44
2022-12-19T22:51:49.299Z,102023.50
2022-12-19T22:54:19.216Z,102016.25
2022-12-19T22:56:46.752Z,102010.22
2022-12-19T22:59:14.329Z,102012.03
2022-12-19T23:01:45.141Z,102001.72
2022-12-19T23:04:15.771Z,101998.22
2022-12-19T23:06:46.460Z,101995.69
2022-12-19T23:09:17.388Z,101977.41
2022-12-19T23:11:52.009Z,101988.19
2022-12-19T23:14:21.167Z,101997.38
2022-12-19T23:16:49.103Z,102002.72
2022-12-19T23:19:17.532Z,102003.31
2022-12-19T23:21:45.563Z,101993.03
2022-12-19T23:24:15.446Z,101992.31
2022-12-19T23:26:45.633Z,101985.56
2022-12-19T23:29:15.568Z,101988.09
2022-12-19T23:31:49.028Z,101986.66
2022-12-19T23:34:19.838Z,101991.97
2022-12-19T23:39:37.463Z,101995.22
2022-12-19T23:42:05.315Z,101993.63
2022-12-19T23:44:33.196Z,101992.06
2022-12-19T23:47:03.608Z,101986.75
2022-12-19T23:49:34.554Z,101979.75
2022-12-19T23:52:02.209Z,101964.03
2022-12-19T23:54:29.760Z,101971.50
2022-12-19T23:56:57.290Z,101960.88
2022-12-19T23:59:24.900Z,101974.06
